createdAt,value
2023-05-18T00:02:14.548Z,7.40
2023-05-18T00:04:41.627Z,7.40
2023-05-18T00:07:10.191Z,7.40
2023-05-18T00:09:37.423Z,7.40
2023-05-18T00:12:05.945Z,7.40
2023-05-18T00:14:33.010Z,7.40
2023-05-18T00:16:59.784Z,7.40
2023-05-18T00:19:26.753Z,7.50
2023-05-18T00:21:53.715Z,7.50
2023-05-18T00:24:22.169Z,7.50
2023-05-18T00:26:49.461Z,7.60
2023-05-18T00:29:16.467Z,7.70
2023-05-18T00:31:43.387Z,7.70
2023-05-18T00:34:10.926Z,7.70
2023-05-18T00:36:38.483Z,7.70
2023-05-18T00:39:06.293Z,7.70
2023-05-18T00:41:34.522Z,7.70
2023-05-18T00:44:01.602Z,7.70
2023-05-18T00:46:29.048Z,7.60
2023-05-18T00:48:56.995Z,7.60
2023-05-18T00:51:24.776Z,7.50
2023-05-18T00:53:53.770Z,7.40
2023-05-18T00:56:20.938Z,7.40
2023-05-18T00:58:52.064Z,7.30
2023-05-18T01:01:19.890Z,7.20
2023-05-18T01:03:46.767Z,7.10
2023-05-18T01:06:13.542Z,7.10
2023-05-18T01:08:40.489Z,7.00
2023-05-18T01:11:18.992Z,6.90
2023-05-18T01:13:54.288Z,6.80
2023-05-18T01:16:27.836Z,6.80
2023-05-18T01:19:00.267Z,6.70
2023-05-18T01:21:44.117Z,6.70
2023-05-18T01:24:24.231Z,6.60
2023-05-18T01:26:52.934Z,6.50
2023-05-18T01:29:21.543Z,6.50
2023-05-18T01:31:48.375Z,6.50
2023-05-18T01:34:15.204Z,6.40
2023-05-18T01:36:42.083Z,6.40
2023-05-18T01:39:10.032Z,6.40
2023-05-18T01:41:41.620Z,6.40
2023-05-18T01:44:14.940Z,6.30
2023-05-18T01:46:51.452Z,6.30
2023-05-18T01:49:26.839Z,6.40
2023-05-18T01:51:55.895Z,6.40
2023-05-18T01:54:24.613Z,6.40
2023-05-18T01:56:53.709Z,6.40
2023-05-18T01:59:22.970Z,6.40
2023-05-18T02:01:49.939Z,6.30
2023-05-18T02:04:16.999Z,6.30
2023-05-18T02:06:43.867Z,6.30
2023-05-18T02:09:10.812Z,6.30
2023-05-18T02:11:37.765Z,6.30
2023-05-18T02:14:04.586Z,6.30
2023-05-18T02:16:32.972Z,6.30
2023-05-18T02:19:00.063Z,6.30
2023-05-18T02:21:26.994Z,6.40
2023-05-18T02:23:53.890Z,6.40
2023-05-18T02:26:20.728Z,6.50
2023-05-18T02:28:47.611Z,6.50
2023-05-18T02:31:14.428Z,6.40
2023-05-18T02:33:42.690Z,6.40
2023-05-18T02:36:10.680Z,6.50
2023-05-18T02:38:37.989Z,6.50
2023-05-18T02:41:04.834Z,6.50
2023-05-18T02:43:31.725Z,6.50
2023-05-18T02:45:58.699Z,6.50
2023-05-18T02:48:25.568Z,6.50
2023-05-18T02:50:54.001Z,6.50
2023-05-18T02:53:20.936Z,6.60
2023-05-18T02:55:48.092Z,6.60
2023-05-18T02:58:15.295Z,6.60
2023-05-18T03:00:42.534Z,6.60
2023-05-18T03:03:09.751Z,6.60
2023-05-18T03:05:36.841Z,6.60
2023-05-18T03:08:05.404Z,6.60
2023-05-18T03:10:32.217Z,6.60
2023-05-18T03:12:59.068Z,6.60
2023-05-18T03:15:25.933Z,6.60
2023-05-18T03:17:52.777Z,6.60
2023-05-18T03:20:19.789Z,6.50
2023-05-18T03:22:46.620Z,6.40
2023-05-18T03:25:14.821Z,6.30
2023-05-18T03:27:41.746Z,6.20
2023-05-18T03:30:09.649Z,6.10
2023-05-18T03:32:36.562Z,6.00
2023-05-18T03:35:03.920Z,5.90
2023-05-18T03:37:30.779Z,5.90
2023-05-18T03:40:00.197Z,5.80
2023-05-18T03:42:28.483Z,5.70
2023-05-18T03:44:55.408Z,5.70
2023-05-18T03:47:22.220Z,5.60
2023-05-18T03:49:49.066Z,5.60
2023-05-18T03:52:16.023Z,5.60
2023-05-18T03:54:42.852Z,5.60
2023-05-18T03:57:09.634Z,5.60
2023-05-18T03:59:37.932Z,5.60
2023-05-18T04:02:05.745Z,5.60
2023-05-18T04:04:32.661Z,5.60
2023-05-18T04:06:59.678Z,5.70
2023-05-18T04:09:27.049Z,5.70
2023-05-18T04:11:54.015Z,5.70
2023-05-18T04:14:21.063Z,5.80
2023-05-18T04:16:49.474Z,5.80
2023-05-18T04:19:16.543Z,5.90
2023-05-18T04:21:43.449Z,6.00
2023-05-18T04:24:10.334Z,6.00
2023-05-18T04:26:37.187Z,6.10
2023-05-18T04:29:04.320Z,6.10
2023-05-18T04:31:31.162Z,6.20
2023-05-18T04:33:59.390Z,6.30
2023-05-18T04:36:26.333Z,6.40
2023-05-18T04:38:53.172Z,6.40
2023-05-18T04:41:19.990Z,6.50
2023-05-18T04:43:46.851Z,6.60
2023-05-18T04:46:13.788Z,6.60
2023-05-18T04:48:40.660Z,6.70
2023-05-18T04:51:08.954Z,6.80
2023-05-18T04:53:36.014Z,6.80
2023-05-18T04:56:02.878Z,6.90
2023-05-18T04:58:30.571Z,6.90
2023-05-18T05:00:57.595Z,7.00
2023-05-18T05:03:24.607Z,7.10
2023-05-18T05:05:51.518Z,7.10
2023-05-18T05:08:19.706Z,7.20
2023-05-18T05:10:46.522Z,7.30
2023-05-18T05:13:13.449Z,7.30
2023-05-18T05:15:40.296Z,7.40
2023-05-18T05:18:07.203Z,7.50
2023-05-18T05:20:34.261Z,7.50
2023-05-18T05:23:01.147Z,7.60
2023-05-18T05:25:29.656Z,7.70
2023-05-18T05:27:56.756Z,7.80
2023-05-18T05:30:23.678Z,7.90
2023-05-18T05:32:50.805Z,8.00
2023-05-18T05:35:17.716Z,8.00
2023-05-18T05:37:44.561Z,8.10
2023-05-18T05:40:11.973Z,8.20
2023-05-18T05:42:40.663Z,8.30
2023-05-18T05:45:08.696Z,8.40
2023-05-18T05:47:35.575Z,8.50
2023-05-18T05:50:02.566Z,8.50
2023-05-18T05:52:29.400Z,8.60
2023-05-18T05:54:56.625Z,8.70
2023-05-18T05:57:23.547Z,8.70
2023-05-18T05:59:51.822Z,8.80
2023-05-18T06:02:18.751Z,8.90
2023-05-18T06:04:45.644Z,8.90
2023-05-18T06:07:12.553Z,9.00
2023-05-18T06:09:39.337Z,9.10
2023-05-18T06:12:07.062Z,9.10
2023-05-18T06:14:34.030Z,9.20
2023-05-18T06:17:02.367Z,9.30
2023-05-18T06:19:29.522Z,9.30
2023-05-18T06:21:56.594Z,9.40
2023-05-18T06:24:23.608Z,9.50
2023-05-18T06:26:50.557Z,9.50
2023-05-18T06:29:17.685Z,9.60
2023-05-18T06:31:45.430Z,9.70
2023-05-18T06:34:14.452Z,9.80
2023-05-18T06:36:41.697Z,9.90
2023-05-18T06:39:09.240Z,9.90
2023-05-18T06:41:36.524Z,10.00
2023-05-18T06:44:03.678Z,10.00
2023-05-18T06:46:31.005Z,10.00
2023-05-18T06:48:58.213Z,10.00
2023-05-18T06:51:27.043Z,10.10
2023-05-18T06:53:53.966Z,10.20
2023-05-18T06:56:20.939Z,10.30
2023-05-18T06:58:48.356Z,10.50
2023-05-18T07:01:15.624Z,10.60
2023-05-18T07:03:43.050Z,10.80
2023-05-18T07:06:10.236Z,11.00
2023-05-18T07:08:38.900Z,11.10
2023-05-18T07:11:06.413Z,11.20
2023-05-18T07:13:33.611Z,11.30
2023-05-18T07:16:01.734Z,11.40
2023-05-18T07:18:28.922Z,11.50
2023-05-18T07:20:55.964Z,11.60
2023-05-18T07:23:23.005Z,11.80
2023-05-18T07:25:51.982Z,11.90
2023-05-18T07:28:19.069Z,12.00
2023-05-18T07:30:46.183Z,12.00
2023-05-18T07:33:13.191Z,12.00
2023-05-18T07:35:40.305Z,12.10
2023-05-18T07:38:07.231Z,12.20
2023-05-18T07:40:34.480Z,12.30
2023-05-18T07:43:03.255Z,12.20
2023-05-18T07:45:30.492Z,12.30
2023-05-18T07:47:57.933Z,12.30
2023-05-18T07:50:25.552Z,12.40
2023-05-18T07:52:52.660Z,12.50
2023-05-18T07:55:19.684Z,12.70
2023-05-18T07:57:46.755Z,12.90
2023-05-18T08:00:16.890Z,13.20
2023-05-18T08:02:44.442Z,13.50
2023-05-18T08:05:11.490Z,13.60
2023-05-18T08:07:39.574Z,13.70
2023-05-18T08:10:07.127Z,13.60
2023-05-18T08:12:34.273Z,13.60
2023-05-18T08:15:01.417Z,13.50
2023-05-18T08:17:30.100Z,13.50
2023-05-18T08:19:57.287Z,13.50
2023-05-18T08:22:24.391Z,13.60
2023-05-18T08:24:51.508Z,13.90
2023-05-18T08:27:18.756Z,14.10
2023-05-18T08:29:45.818Z,14.20
2023-05-18T08:32:13.221Z,14.30
2023-05-18T08:34:41.973Z,14.30
2023-05-18T08:37:09.054Z,14.30
2023-05-18T08:39:36.104Z,14.00
2023-05-18T08:42:07.563Z,13.70
2023-05-18T08:44:39.361Z,13.70
2023-05-18T08:47:10.275Z,13.90
2023-05-18T08:49:38.067Z,14.10
2023-05-18T08:52:09.058Z,14.40
2023-05-18T08:54:37.753Z,14.70
2023-05-18T08:57:08.856Z,15.00
2023-05-18T08:59:40.920Z,15.40
2023-05-18T09:02:08.200Z,15.80
2023-05-18T09:04:36.099Z,15.80
2023-05-18T09:07:05.453Z,15.80
2023-05-18T09:09:34.971Z,15.70
2023-05-18T09:12:02.936Z,15.70
2023-05-18T09:14:31.730Z,15.70
2023-05-18T09:16:59.075Z,15.60
2023-05-18T09:19:26.106Z,15.40
2023-05-18T09:21:53.094Z,15.20
2023-05-18T09:24:33.314Z,15.00
2023-05-18T09:27:01.832Z,15.00
2023-05-18T09:29:31.688Z,15.10
2023-05-18T09:32:03.422Z,15.20
2023-05-18T09:34:39.986Z,15.50
2023-05-18T09:37:07.055Z,15.90
2023-05-18T09:39:34.076Z,16.00
2023-05-18T09:42:03.661Z,16.10
2023-05-18T09:44:31.771Z,15.90
2023-05-18T09:46:58.961Z,15.70
2023-05-18T09:49:26.060Z,15.70
2023-05-18T09:51:53.421Z,15.70
2023-05-18T09:54:21.999Z,15.80
2023-05-18T09:57:02.344Z,15.80
2023-05-18T09:59:38.691Z,16.00
2023-05-18T10:02:06.553Z,16.20
2023-05-18T10:04:38.167Z,16.30
2023-05-18T10:07:10.082Z,16.50
2023-05-18T10:09:37.164Z,16.50
2023-05-18T10:12:10.000Z,16.60
2023-05-18T10:14:39.662Z,16.80
2023-05-18T10:17:14.894Z,17.00
2023-05-18T10:19:42.774Z,17.10
2023-05-18T10:22:10.452Z,17.20
2023-05-18T10:24:42.470Z,17.40
2023-05-18T10:27:10.517Z,17.70
2023-05-18T10:29:41.133Z,18.00
2023-05-18T10:32:12.794Z,18.10
2023-05-18T10:34:41.806Z,18.20
2023-05-18T10:37:11.903Z,18.20
2023-05-18T10:39:41.354Z,18.20
2023-05-18T10:42:10.180Z,18.20
2023-05-18T10:44:40.746Z,18.00
2023-05-18T10:47:09.038Z,17.80
2023-05-18T10:49:37.678Z,17.60
2023-05-18T10:52:06.516Z,17.40
2023-05-18T10:54:34.401Z,17.30
2023-05-18T10:57:01.797Z,17.20
2023-05-18T10:59:29.249Z,17.00
2023-05-18T11:01:59.012Z,17.00
2023-05-18T11:04:27.814Z,17.10
2023-05-18T11:06:57.673Z,16.90
2023-05-18T11:09:25.805Z,16.70
2023-05-18T11:11:53.929Z,16.50
2023-05-18T11:14:31.365Z,16.40
2023-05-18T11:17:22.522Z,16.50
2023-05-18T11:20:16.265Z,16.50
2023-05-18T11:22:48.895Z,16.50
2023-05-18T11:25:38.810Z,16.50
2023-05-18T11:28:08.050Z,16.70
2023-05-18T11:30:49.496Z,16.70
2023-05-18T11:33:23.495Z,16.80
2023-05-18T11:36:14.941Z,16.80
2023-05-18T11:38:53.420Z,17.20
2023-05-18T11:41:32.284Z,17.90
2023-05-18T11:44:16.432Z,18.10
2023-05-18T11:46:54.832Z,18.20
2023-05-18T11:49:25.175Z,18.50
2023-05-18T11:52:05.918Z,18.80
2023-05-18T11:54:40.392Z,19.10
2023-05-18T11:57:08.143Z,19.20
2023-05-18T11:59:38.212Z,19.10
2023-05-18T12:02:05.625Z,19.10
2023-05-18T12:04:34.600Z,19.30
2023-05-18T12:07:05.437Z,19.30
2023-05-18T12:09:32.994Z,19.50
2023-05-18T12:12:01.178Z,19.50
2023-05-18T12:14:29.099Z,19.70
2023-05-18T12:16:58.615Z,20.00
2023-05-18T12:19:25.842Z,20.40
2023-05-18T12:21:56.754Z,20.80
2023-05-18T12:24:25.838Z,20.90
2023-05-18T12:26:53.357Z,20.80
2023-05-18T12:29:21.379Z,20.80
2023-05-18T12:31:48.988Z,20.90
2023-05-18T12:34:16.228Z,20.90
2023-05-18T12:36:51.823Z,20.80
2023-05-18T12:39:20.798Z,20.50
2023-05-18T12:41:48.156Z,20.20
2023-05-18T12:44:15.385Z,20.00
2023-05-18T12:46:43.550Z,19.70
2023-05-18T12:49:11.477Z,19.40
2023-05-18T12:51:39.729Z,19.20
2023-05-18T12:54:09.240Z,18.90
2023-05-18T12:56:58.339Z,18.70
2023-05-18T12:59:27.497Z,18.50
2023-05-18T13:01:55.375Z,18.20
2023-05-18T13:04:23.167Z,17.90
2023-05-18T13:06:50.551Z,17.80
2023-05-18T13:09:18.287Z,18.00
2023-05-18T13:12:06.330Z,18.10
2023-05-18T13:14:39.348Z,18.40
2023-05-18T13:17:06.406Z,18.50
2023-05-18T13:19:35.286Z,18.40
2023-05-18T13:22:02.390Z,18.40
2023-05-18T13:24:29.322Z,18.20
2023-05-18T13:26:57.036Z,17.80
2023-05-18T13:29:23.977Z,17.50
2023-05-18T13:32:08.542Z,17.20
2023-05-18T13:34:35.654Z,17.00
2023-05-18T13:37:02.677Z,17.00
2023-05-18T13:39:29.791Z,17.30
2023-05-18T13:41:57.293Z,17.60
2023-05-18T13:44:38.142Z,17.90
2023-05-18T13:47:06.333Z,18.10
2023-05-18T13:49:34.766Z,18.30
2023-05-18T13:52:01.659Z,18.20
2023-05-18T13:54:29.230Z,18.30
2023-05-18T13:56:56.542Z,18.80
2023-05-18T13:59:23.699Z,19.30
2023-05-18T14:01:50.756Z,19.60
2023-05-18T14:04:17.798Z,19.60
2023-05-18T14:06:46.239Z,19.50
2023-05-18T14:09:13.174Z,19.20
2023-05-18T14:11:40.298Z,19.00
2023-05-18T14:14:08.076Z,18.60
2023-05-18T14:16:35.087Z,18.20
2023-05-18T14:19:02.164Z,17.80
2023-05-18T14:21:29.004Z,17.40
2023-05-18T14:23:57.529Z,17.00
2023-05-18T14:26:24.609Z,16.80
2023-05-18T14:28:52.115Z,16.70
2023-05-18T14:31:19.206Z,16.50
2023-05-18T14:33:46.186Z,16.60
2023-05-18T14:36:13.169Z,16.60
2023-05-18T14:38:40.640Z,16.50
2023-05-18T14:41:09.181Z,16.20
2023-05-18T14:43:36.225Z,15.90
2023-05-18T14:48:35.623Z,15.60
2023-05-18T14:51:02.740Z,15.60
2023-05-18T14:53:30.202Z,15.50
2023-05-18T14:55:57.148Z,15.60
2023-05-18T14:58:25.393Z,15.60
2023-05-18T15:00:52.346Z,15.50
2023-05-18T15:03:19.340Z,15.50
2023-05-18T15:05:46.265Z,15.40
2023-05-18T15:08:13.507Z,15.30
2023-05-18T15:10:40.449Z,15.20
2023-05-18T15:13:07.568Z,15.10
2023-05-18T15:15:36.194Z,15.10
2023-05-18T15:18:03.361Z,15.30
2023-05-18T15:20:30.655Z,15.30
2023-05-18T15:22:58.071Z,15.40
2023-05-18T15:25:25.033Z,15.50
2023-05-18T15:27:51.975Z,15.40
2023-05-18T15:30:19.164Z,15.40
2023-05-18T15:32:47.546Z,15.40
2023-05-18T15:35:14.582Z,15.30
2023-05-18T15:37:41.503Z,15.20
2023-05-18T15:40:09.260Z,15.20
2023-05-18T15:42:36.695Z,15.10
2023-05-18T15:45:04.032Z,14.90
2023-05-18T15:47:30.987Z,14.80
2023-05-18T15:49:59.590Z,14.60
2023-05-18T15:52:26.684Z,14.50
2023-05-18T15:54:53.728Z,14.40
2023-05-18T15:57:20.620Z,14.30
2023-05-18T15:59:47.526Z,14.20
2023-05-18T16:02:15.068Z,14.20
2023-05-18T16:04:42.234Z,14.20
2023-05-18T16:07:11.150Z,14.30
2023-05-18T16:09:38.176Z,14.30
2023-05-18T16:12:05.775Z,14.30
2023-05-18T16:14:33.615Z,14.20
2023-05-18T16:17:00.824Z,14.10
2023-05-18T16:19:27.961Z,14.00
2023-05-18T16:21:55.066Z,14.00
2023-05-18T16:24:23.551Z,13.90
2023-05-18T16:26:50.524Z,13.90
2023-05-18T16:29:17.525Z,13.80
2023-05-18T16:31:44.564Z,13.90
2023-05-18T16:34:11.734Z,13.80
2023-05-18T16:36:38.897Z,13.80
2023-05-18T16:39:05.995Z,13.80
2023-05-18T16:41:34.439Z,13.80
2023-05-18T16:44:01.819Z,13.70
2023-05-18T16:46:28.874Z,13.70
2023-05-18T16:48:56.256Z,13.70
2023-05-18T16:51:24.039Z,13.70
2023-05-18T16:53:52.225Z,13.70
2023-05-18T16:56:19.219Z,13.70
2023-05-18T16:58:47.693Z,13.70
2023-05-18T17:01:26.651Z,13.60
2023-05-18T17:03:54.824Z,13.60
2023-05-18T17:06:21.807Z,13.60
2023-05-18T17:08:48.637Z,13.50
2023-05-18T17:11:15.588Z,13.40
2023-05-18T17:13:42.430Z,13.40
2023-05-18T17:16:10.889Z,13.40
2023-05-18T17:18:37.801Z,13.40
2023-05-18T17:21:04.803Z,13.30
2023-05-18T17:23:32.027Z,13.30
2023-05-18T17:26:05.787Z,13.30
2023-05-18T17:28:33.828Z,13.30
2023-05-18T17:31:00.918Z,13.30
2023-05-18T17:33:29.401Z,13.20
2023-05-18T17:35:56.384Z,13.10
2023-05-18T17:38:23.235Z,13.10
2023-05-18T17:40:50.445Z,13.20
2023-05-18T17:43:17.300Z,13.10
2023-05-18T17:45:44.250Z,13.10
2023-05-18T17:48:11.121Z,13.10
2023-05-18T17:50:39.447Z,13.10
2023-05-18T17:53:06.378Z,13.10
2023-05-18T17:55:33.374Z,13.00
2023-05-18T17:58:00.309Z,13.00
2023-05-18T18:00:27.263Z,12.90
2023-05-18T18:02:54.278Z,12.90
2023-05-18T18:05:21.249Z,12.80
2023-05-18T18:07:49.719Z,12.80
2023-05-18T18:10:16.671Z,12.80
2023-05-18T18:12:43.681Z,12.70
2023-05-18T18:15:11.480Z,12.60
2023-05-18T18:17:38.550Z,12.60
2023-05-18T18:20:06.837Z,12.60
2023-05-18T18:22:35.805Z,12.50
2023-05-18T18:25:04.816Z,12.50
2023-05-18T18:27:31.690Z,12.40
2023-05-18T18:29:58.677Z,12.40
2023-05-18T18:32:25.903Z,12.30
2023-05-18T18:34:52.855Z,12.30
2023-05-18T18:37:19.718Z,12.30
2023-05-18T18:39:46.639Z,12.20
2023-05-18T18:42:18.676Z,12.10
2023-05-18T18:44:48.065Z,12.10
2023-05-18T18:47:15.111Z,12.00
2023-05-18T18:49:42.082Z,12.00
2023-05-18T18:52:10.286Z,12.00
2023-05-18T18:54:38.110Z,11.90
2023-05-18T18:57:05.452Z,11.80
2023-05-18T18:59:33.776Z,11.80
2023-05-18T19:02:00.802Z,11.80
2023-05-18T19:04:28.385Z,11.70
2023-05-18T19:06:55.552Z,11.70
2023-05-18T19:09:22.971Z,11.70
2023-05-18T19:11:49.787Z,11.60
2023-05-18T19:14:16.769Z,11.60
2023-05-18T19:17:07.888Z,11.60
2023-05-18T19:19:34.772Z,11.50
2023-05-18T19:22:01.761Z,11.50
2023-05-18T19:24:28.931Z,11.50
2023-05-18T19:26:55.959Z,11.50
2023-05-18T19:29:23.494Z,11.40
2023-05-18T19:31:50.599Z,11.40
2023-05-18T19:34:19.248Z,11.40
2023-05-18T19:36:46.180Z,11.40
2023-05-18T19:39:14.973Z,11.40
2023-05-18T19:41:41.823Z,11.40
2023-05-18T19:44:08.670Z,11.30
2023-05-18T19:46:36.158Z,11.30
2023-05-18T19:49:03.402Z,11.30
2023-05-18T19:51:31.879Z,11.40
2023-05-18T19:53:58.885Z,11.40
2023-05-18T19:56:25.910Z,11.40
2023-05-18T19:58:52.814Z,11.40
2023-05-18T20:01:20.318Z,11.40
2023-05-18T20:03:47.377Z,11.30
2023-05-18T20:06:14.518Z,11.30
2023-05-18T20:08:42.800Z,11.30
2023-05-18T20:11:09.833Z,11.30
2023-05-18T20:13:36.701Z,11.20
2023-05-18T20:16:03.852Z,11.30
2023-05-18T20:18:31.134Z,11.30
2023-05-18T20:20:58.308Z,11.20
2023-05-18T20:23:25.439Z,11.20
2023-05-18T20:25:53.872Z,11.20
2023-05-18T20:28:21.043Z,11.20
2023-05-18T20:30:48.502Z,11.10
2023-05-18T20:33:15.538Z,11.10
2023-05-18T20:35:42.520Z,11.10
2023-05-18T20:38:09.779Z,11.00
2023-05-18T20:40:36.608Z,11.00
2023-05-18T20:43:05.259Z,11.00
2023-05-18T20:45:32.244Z,10.90
2023-05-18T20:47:59.334Z,10.90
2023-05-18T20:50:26.309Z,10.90
2023-05-18T20:52:54.167Z,10.80
2023-05-18T20:55:21.344Z,10.80
2023-05-18T20:57:48.403Z,10.80
2023-05-18T21:00:18.048Z,10.80
2023-05-18T21:02:45.919Z,10.80
2023-05-18T21:05:14.508Z,10.80
2023-05-18T21:07:41.458Z,10.70
2023-05-18T21:10:09.914Z,10.70
2023-05-18T21:12:38.332Z,10.70
2023-05-18T21:15:06.277Z,10.70
2023-05-18T21:17:34.955Z,10.70
2023-05-18T21:20:02.022Z,10.70
2023-05-18T21:22:29.481Z,10.70
2023-05-18T21:24:56.505Z,10.60
2023-05-18T21:27:23.558Z,10.70
2023-05-18T21:29:50.575Z,10.70
2023-05-18T21:32:17.554Z,10.60
2023-05-18T21:34:46.131Z,10.60
2023-05-18T21:37:13.201Z,10.60
2023-05-18T21:39:40.280Z,10.60
2023-05-18T21:42:07.680Z,10.60
2023-05-18T21:44:34.557Z,10.60
2023-05-18T21:47:02.056Z,10.60
2023-05-18T21:49:29.207Z,10.60
2023-05-18T21:51:58.094Z,10.60
2023-05-18T21:54:24.984Z,10.60
2023-05-18T21:56:51.929Z,10.60
2023-05-18T21:59:18.852Z,10.50
2023-05-18T22:01:45.862Z,10.50
2023-05-18T22:04:15.048Z,10.50
2023-05-18T22:06:42.034Z,10.50
2023-05-18T22:09:10.412Z,10.50
2023-05-18T22:11:38.593Z,10.50
2023-05-18T22:14:05.634Z,10.40
2023-05-18T22:16:32.546Z,10.40
2023-05-18T22:18:59.609Z,10.40
2023-05-18T22:21:27.332Z,10.30
2023-05-18T22:23:54.141Z,10.30
2023-05-18T22:26:22.920Z,10.20
2023-05-18T22:28:50.196Z,10.30
2023-05-18T22:31:17.854Z,10.20
2023-05-18T22:33:44.874Z,10.20
2023-05-18T22:36:11.819Z,10.30
2023-05-18T22:38:38.761Z,10.20
2023-05-18T22:41:05.633Z,10.20
2023-05-18T22:43:34.044Z,10.30
2023-05-18T22:46:01.208Z,10.20
2023-05-18T22:48:28.299Z,10.20
2023-05-18T22:50:55.714Z,10.30
2023-05-18T22:53:22.638Z,10.20
2023-05-18T22:55:49.691Z,10.20
2023-05-18T22:58:17.145Z,10.20
2023-05-18T23:00:45.640Z,10.20
2023-05-18T23:03:12.713Z,10.10
2023-05-18T23:05:39.662Z,10.20
2023-05-18T23:08:06.619Z,10.20
2023-05-18T23:10:33.875Z,10.20
2023-05-18T23:13:00.975Z,10.20
2023-05-18T23:15:29.213Z,10.20
2023-05-18T23:17:57.548Z,10.10
2023-05-18T23:20:24.459Z,10.10
2023-05-18T23:22:51.453Z,10.10
2023-05-18T23:25:18.774Z,10.00
2023-05-18T23:27:45.905Z,10.10
2023-05-18T23:30:13.329Z,10.00
2023-05-18T23:32:40.835Z,10.00
2023-05-18T23:35:13.234Z,10.00
2023-05-18T23:37:42.048Z,10.00
2023-05-18T23:40:11.283Z,10.00
2023-05-18T23:42:38.839Z,10.00
2023-05-18T23:45:07.204Z,10.00
2023-05-18T23:47:34.804Z,10.00
2023-05-18T23:50:02.194Z,10.00
2023-05-18T23:52:32.885Z,10.00
2023-05-18T23:55:00.385Z,9.90
2023-05-18T23:57:27.816Z,9.90
2023-05-18T23:59:55.777Z,9.90
